Time;durP1;ratioP1;P1;durP2;ratioP2;P2;SDS_P1;SDS_P2;PMS_P1;PMS_P2;Temp;Humidity;BMP_temperature;BMP_pressure;BME280_temperature;BME280_humidity;BME280_pressure;Samples;Min_cycle;Max_cycle;Signal;HPM_P1;HPM_P2
2022/06/27 00:08:35;;;;;;;6.30;4.60;;;17.50;99.90;;;;;;6614541;89;20178;-89
2022/06/27 00:18:35;;;;;;;8.68;4.97;;;17.10;99.90;;;;;;6637115;89;20282;-87
2022/06/27 00:28:36;;;;;;;8.68;5.22;;;17.50;99.90;;;;;;6660864;89;20224;-86
2022/06/27 00:38:38;;;;;;;8.73;5.62;;;17.20;99.90;;;;;;6631106;89;22983;-87
2022/06/27 00:48:39;;;;;;;7.25;5.25;;;17.10;99.90;;;;;;6660416;89;21018;-85
2022/06/27 00:58:41;;;;;;;8.20;5.60;;;17.10;99.90;;;;;;6663832;89;20183;-85
2022/06/27 01:08:41;;;;;;;9.88;6.22;;;17.00;99.90;;;;;;6705527;88;20162;-86
2022/06/27 01:19:02;;;;;;;10.80;7.00;;;17.00;99.90;;;;;;6727233;77;20161;-80
2022/06/27 01:29:04;;;;;;;8.88;7.12;;;16.90;99.90;;;;;;6750203;88;20650;-81
2022/06/27 01:39:05;;;;;;;12.00;7.12;;;16.90;99.90;;;;;;6730217;88;20166;-80
2022/06/27 01:49:06;;;;;;;13.13;7.62;;;16.90;99.90;;;;;;6731575;88;21002;-81
2022/06/27 01:59:07;;;;;;;11.18;7.90;;;17.00;99.90;;;;;;6698747;89;20189;-81
2022/06/27 02:09:11;;;;;;;9.75;6.97;;;17.00;99.90;;;;;;6711984;88;20180;-80
2022/06/27 02:19:14;;;;;;;14.85;8.70;;;17.00;99.90;;;;;;6681342;89;20268;-80
2022/06/27 02:29:14;;;;;;;12.52;8.85;;;17.10;99.90;;;;;;6691312;89;20269;-81
2022/06/27 02:39:25;;;;;;;13.55;8.35;;;17.20;99.90;;;;;;6698305;89;20171;-81
2022/06/27 02:49:25;;;;;;;12.63;8.68;;;17.20;99.90;;;;;;6694900;88;20221;-81
2022/06/27 02:59:35;;;;;;;13.80;8.55;;;16.90;99.90;;;;;;6664650;89;20270;-81
2022/06/27 03:09:36;;;;;;;13.95;8.68;;;16.90;99.90;;;;;;6664902;89;20175;-81
2022/06/27 03:19:36;;;;;;;10.63;7.55;;;17.00;99.90;;;;;;6677790;89;20168;-81
2022/06/27 03:29:37;;;;;;;12.95;7.62;;;17.00;99.90;;;;;;6723513;88;20158;-81
2022/06/27 03:39:38;;;;;;;11.33;7.30;;;17.00;99.90;;;;;;6714536;88;22019;-81
2022/06/27 03:59:57;;;;;;;10.75;7.07;;;17.00;99.90;;;;;;6714311;88;20171;-82
2022/06/27 04:09:58;;;;;;;11.05;7.53;;;17.10;99.90;;;;;;6694123;88;20231;-81
2022/06/27 04:19:59;;;;;;;12.00;7.55;;;16.90;99.90;;;;;;6663577;89;21112;-81
2022/06/27 04:30:00;;;;;;;11.70;7.35;;;17.00;99.90;;;;;;6663181;89;20240;-81
2022/06/27 04:40:00;;;;;;;11.75;8.55;;;17.10;99.90;;;;;;6675408;89;20159;-81
2022/06/27 04:50:02;;;;;;;14.23;9.30;;;16.70;99.90;;;;;;6721105;88;20940;-81
2022/06/27 05:00:05;;;;;;;16.92;8.60;;;16.60;99.90;;;;;;6696279;89;20246;-82
2022/06/27 05:10:07;;;;;;;15.27;8.20;;;16.80;99.90;;;;;;6679256;89;20200;-81
2022/06/27 05:20:08;;;;;;;15.65;8.15;;;16.80;99.90;;;;;;6662257;89;20184;-82
2022/06/27 05:30:09;;;;;;;13.77;8.23;;;17.20;99.90;;;;;;6672277;89;20249;-81
2022/06/27 05:40:10;;;;;;;14.90;7.40;;;17.50;99.90;;;;;;6692546;88;20897;-80
2022/06/27 05:50:12;;;;;;;12.60;7.87;;;17.60;99.90;;;;;;6648815;89;20239;-80
2022/06/27 06:00:13;;;;;;;14.35;7.53;;;17.60;99.90;;;;;;6637717;89;20262;-81
2022/06/27 06:10:14;;;;;;;16.25;7.85;;;17.70;99.90;;;;;;6659624;89;20275;-81
2022/06/27 06:20:15;;;;;;;13.57;6.70;;;17.50;99.90;;;;;;6687284;89;20304;-81
2022/06/27 07:11:41;;;;;;;12.40;6.87;;;18.50;99.90;;;;;;6752722;88;20183;-85
2022/06/27 07:21:42;;;;;;;11.18;7.40;;;18.80;99.90;;;;;;6751923;88;20973;-83
2022/06/27 07:31:42;;;;;;;15.43;8.80;;;19.70;99.90;;;;;;6752151;88;20666;-85
2022/06/27 07:41:44;;;;;;;14.30;9.60;;;19.10;99.90;;;;;;6752127;88;20173;-83
2022/06/27 07:51:47;;;;;;;14.77;8.93;;;18.90;99.90;;;;;;6750938;88;20765;-82
2022/06/27 08:01:47;;;;;;;14.02;8.02;;;19.50;99.90;;;;;;6751140;88;20181;-82
2022/06/27 08:11:48;;;;;;;15.63;8.85;;;19.70;99.90;;;;;;6731428;88;20254;-81
2022/06/27 08:21:49;;;;;;;13.15;8.50;;;19.80;99.90;;;;;;6714092;88;20180;-81
2022/06/27 08:31:52;;;;;;;13.98;8.40;;;19.80;99.90;;;;;;6713859;88;20211;-82
2022/06/27 08:41:52;;;;;;;14.50;9.27;;;19.50;99.90;;;;;;6729011;88;20191;-81
2022/06/27 08:51:53;;;;;;;16.00;10.67;;;19.60;99.90;;;;;;6713621;88;20171;-81
2022/06/27 09:01:54;;;;;;;18.70;10.50;;;19.30;99.90;;;;;;6713524;88;20494;-81
2022/06/27 09:11:56;;;;;;;17.30;11.98;;;19.20;99.90;;;;;;6679536;89;20168;-81
2022/06/27 10:03:09;;;;;;;15.07;10.30;;;20.40;99.90;;;;;;6733863;88;20289;-85
2022/06/27 10:13:11;;;;;;;14.85;9.60;;;20.90;99.90;;;;;;6745110;88;20260;-85
2022/06/27 10:23:13;;;;;;;14.05;7.93;;;21.20;99.90;;;;;;6748235;88;20208;-83
2022/06/27 11:34:49;;;;;;;14.65;9.30;;;22.40;99.90;;;;;;6714189;88;20184;-85
2022/06/27 11:45:07;;;;;;;17.40;8.70;;;22.40;99.90;;;;;;6708445;88;20647;-83
2022/06/27 11:55:11;;;;;;;12.65;8.27;;;22.30;99.90;;;;;;6677041;89;20196;-82
2022/06/27 12:05:22;;;;;;;15.13;9.30;;;22.10;99.90;;;;;;6710139;88;20300;-83
2022/06/27 12:15:23;;;;;;;12.98;7.62;;;22.00;99.90;;;;;;6707445;88;20258;-82
2022/06/27 12:35:27;;;;;;;15.33;8.23;;;23.10;99.90;;;;;;6728050;88;20209;-82
2022/06/27 12:45:28;;;;;;;12.43;6.87;;;23.00;99.90;;;;;;6725976;88;20514;-82
2022/06/27 12:55:28;;;;;;;12.73;6.97;;;22.60;99.90;;;;;;6730795;88;20479;-84
2022/06/27 13:05:31;;;;;;;14.23;8.55;;;22.30;99.90;;;;;;6731082;88;20201;-83
2022/06/27 13:15:34;;;;;;;13.40;7.60;;;22.90;99.90;;;;;;6730693;88;20179;-80
2022/06/27 13:25:35;;;;;;;10.07;6.43;;;23.10;99.90;;;;;;6709632;88;20171;-83
2022/06/27 13:35:35;;;;;;;10.23;6.10;;;23.70;99.90;;;;;;6707791;88;20197;-83
2022/06/27 13:45:39;;;;;;;8.73;5.67;;;23.80;99.90;;;;;;6708049;88;20487;-83
2022/06/27 13:55:39;;;;;;;;;;;23.10;99.90;;;;;;6726472;88;21104;-86
2022/06/27 14:05:40;;;;;;;8.30;5.37;;;23.90;99.90;;;;;;6731346;88;20035;-86
2022/06/27 14:15:40;;;;;;;7.95;5.20;;;25.40;99.90;;;;;;6726391;88;21083;-83
2022/06/27 14:25:41;;;;;;;8.55;5.10;;;25.40;99.90;;;;;;6730517;88;20290;-82
2022/06/27 14:35:42;;;;;;;8.02;4.93;;;25.00;99.90;;;;;;6730927;88;20190;-85
2022/06/27 14:45:42;;;;;;;8.88;4.70;;;25.00;99.90;;;;;;6695594;88;20195;-83
2022/06/27 14:55:43;;;;;;;8.50;4.50;;;24.50;99.90;;;;;;6695825;88;20222;-86
2022/06/27 15:16:07;;;;;;;5.00;1.57;;;23.60;99.90;;;;;;6892143;78;20191;-85
2022/06/27 15:26:49;;;;;;;3.47;1.30;;;18.20;99.90;;;;;;6738635;78;20549;-81
2022/06/27 15:47:51;;;;;;;2.28;0.90;;;17.70;99.90;;;;;;6721701;88;20229;-80
2022/06/27 15:57:52;;;;;;;4.10;1.08;;;18.30;99.90;;;;;;6713450;88;20389;-79
2022/06/27 16:18:55;;;;;;;2.00;1.10;;;17.40;99.90;;;;;;6725972;88;20625;-79
2022/06/27 16:28:55;;;;;;;3.75;1.30;;;18.10;99.90;;;;;;6730150;87;20606;-78
2022/06/27 16:38:56;;;;;;;2.72;1.40;;;18.20;99.90;;;;;;6731650;88;20202;-79
2022/06/27 16:48:56;;;;;;;3.28;1.75;;;18.20;99.90;;;;;;6718114;88;20236;-79
2022/06/27 16:58:57;;;;;;;4.78;1.80;;;17.90;99.90;;;;;;6722214;88;20208;-77
2022/06/27 17:08:57;;;;;;;3.55;1.50;;;17.80;99.90;;;;;;6721532;88;20808;-79
2022/06/27 17:18:58;;;;;;;3.90;1.67;;;18.50;99.90;;;;;;6729570;88;20219;-78
2022/06/27 17:28:58;;;;;;;3.47;1.80;;;18.30;99.90;;;;;;6737491;88;20188;-78
2022/06/27 17:39:01;;;;;;;5.22;2.67;;;18.10;99.90;;;;;;6723926;88;20208;-79
2022/06/27 17:49:03;;;;;;;4.30;1.87;;;17.80;99.90;;;;;;6722908;88;20190;-79
2022/06/27 17:59:03;;;;;;;5.12;1.90;;;17.80;99.90;;;;;;6712899;88;20227;-79
2022/06/27 18:09:04;;;;;;;3.05;1.98;;;17.70;99.90;;;;;;6710469;88;20222;-78
2022/06/27 18:19:04;;;;;;;4.00;1.92;;;18.10;99.90;;;;;;6720371;88;20177;-77
2022/06/27 18:29:05;;;;;;;4.50;1.87;;;20.50;99.90;;;;;;6712701;88;20189;-78
2022/06/27 18:39:05;;;;;;;4.45;1.77;;;21.60;99.90;;;;;;6711069;88;20729;-78
2022/06/27 18:49:07;;;;;;;3.85;1.67;;;20.50;99.90;;;;;;6718687;88;20276;-77
2022/06/27 18:59:08;;;;;;;3.37;1.70;;;19.80;99.90;;;;;;6714746;88;20587;-79
2022/06/27 19:09:09;;;;;;;3.42;1.98;;;19.30;99.90;;;;;;6706057;88;20202;-79
2022/06/27 19:19:10;;;;;;;7.13;3.67;;;18.80;99.90;;;;;;6718317;88;20187;-78
2022/06/27 19:29:11;;;;;;;2.97;1.90;;;18.70;99.90;;;;;;6720212;88;20215;-78
2022/06/27 19:50:13;;;;;;;3.28;1.83;;;18.30;99.90;;;;;;6710619;88;20239;-80
2022/06/27 20:00:14;;;;;;;6.95;2.20;;;18.10;99.90;;;;;;6710001;88;20218;-80
2022/06/27 20:10:22;;;;;;;6.18;3.40;;;17.90;99.90;;;;;;6690431;88;20374;-80
2022/06/27 20:20:23;;;;;;;6.05;2.78;;;17.70;99.90;;;;;;6690122;88;20222;-80
2022/06/27 20:30:24;;;;;;;4.55;2.78;;;17.20;99.90;;;;;;6693544;88;20261;-81
2022/06/27 20:40:25;;;;;;;7.72;3.17;;;17.00;99.90;;;;;;6700921;88;20243;-79
2022/06/27 20:50:26;;;;;;;7.00;4.70;;;16.90;99.90;;;;;;6689917;88;20224;-79
2022/06/27 21:00:26;;;;;;;9.60;4.63;;;16.60;99.90;;;;;;6694304;88;20195;-80
2022/06/27 21:20:48;;;;;;;7.20;3.47;;;16.60;99.90;;;;;;6697991;88;20199;-80
2022/06/27 21:30:48;;;;;;;5.55;3.40;;;16.70;99.90;;;;;;6710811;88;20212;-79
2022/06/27 21:40:49;;;;;;;6.05;3.00;;;16.60;99.90;;;;;;6707418;88;20190;-80
2022/06/27 21:50:50;;;;;;;5.53;3.00;;;16.40;99.90;;;;;;6710957;88;20201;-81
2022/06/27 22:00:51;;;;;;;7.18;2.90;;;16.30;99.90;;;;;;6712419;88;20210;-81
2022/06/27 22:10:51;;;;;;;4.18;2.30;;;16.10;99.90;;;;;;6714731;88;20216;-80
2022/06/27 22:20:54;;;;;;;4.37;2.80;;;15.70;99.90;;;;;;6714649;88;20630;-79
2022/06/27 22:30:55;;;;;;;5.57;3.15;;;15.70;99.90;;;;;;6715148;88;21033;-80
2022/06/27 22:40:55;;;;;;;4.80;2.20;;;15.50;99.90;;;;;;6714381;88;20266;-82
2022/06/27 22:50:56;;;;;;;6.40;2.20;;;15.60;99.90;;;;;;6716328;88;20510;-79
2022/06/27 23:00:56;;;;;;;9.52;2.20;;;15.20;99.90;;;;;;6710588;88;20203;-78
2022/06/27 23:10:57;;;;;;;4.35;2.00;;;15.30;99.90;;;;;;6714779;88;20214;-78
2022/06/27 23:20:57;;;;;;;5.60;2.20;;;15.20;99.90;;;;;;6709983;88;20181;-79
2022/06/27 23:30:58;;;;;;;4.93;2.12;;;15.00;99.90;;;;;;6710462;88;20219;-79
2022/06/27 23:40:58;;;;;;;4.43;2.37;;;14.50;99.90;;;;;;6713266;88;20684;-79
2022/06/27 23:50:59;;;;;;;4.72;2.33;;;14.50;99.90;;;;;;6713543;88;20249;-79
